sensor_id;sensor_type;location;lat;lon;timestamp;P1;durP1;ratioP1;P2;durP2;ratioP2
78143;SDS011;67394;52.522;13.622;2023-07-31T00:01:17;3.50;;;2.13;;
78143;SDS011;67394;52.522;13.622;2023-07-31T00:03:45;2.42;;;1.60;;
78143;SDS011;67394;52.522;13.622;2023-07-31T00:06:12;2.08;;;1.70;;
78143;SDS011;67394;52.522;13.622;2023-07-31T00:11:05;2.60;;;1.50;;
78143;SDS011;67394;52.522;13.622;2023-07-31T00:13:32;3.10;;;1.80;;
78143;SDS011;67394;52.522;13.622;2023-07-31T00:18:25;4.80;;;1.88;;
78143;SDS011;67394;52.522;13.622;2023-07-31T00:20:52;2.35;;;1.33;;
78143;SDS011;67394;52.522;13.622;2023-07-31T00:23:18;2.60;;;1.70;;
78143;SDS011;67394;52.522;13.622;2023-07-31T00:25:45;4.45;;;1.40;;
78143;SDS011;67394;52.522;13.622;2023-07-31T00:28:11;2.83;;;1.50;;
78143;SDS011;67394;52.522;13.622;2023-07-31T00:30:38;5.30;;;1.98;;
78143;SDS011;67394;52.522;13.622;2023-07-31T00:33:05;2.50;;;1.60;;
78143;SDS011;67394;52.522;13.622;2023-07-31T00:35:32;3.25;;;1.60;;
78143;SDS011;67394;52.522;13.622;2023-07-31T00:37:58;4.50;;;1.80;;
78143;SDS011;67394;52.522;13.622;2023-07-31T00:42:52;1.90;;;1.60;;
78143;SDS011;67394;52.522;13.622;2023-07-31T00:45:18;2.30;;;1.40;;
78143;SDS011;67394;52.522;13.622;2023-07-31T00:50:12;3.45;;;1.55;;
78143;SDS011;67394;52.522;13.622;2023-07-31T00:52:40;2.72;;;1.75;;
78143;SDS011;67394;52.522;13.622;2023-07-31T00:55:07;3.25;;;1.83;;
78143;SDS011;67394;52.522;13.622;2023-07-31T00:57:34;2.38;;;1.45;;
78143;SDS011;67394;52.522;13.622;2023-07-31T01:00:04;2.67;;;1.33;;
78143;SDS011;67394;52.522;13.622;2023-07-31T01:02:31;2.38;;;1.77;;
78143;SDS011;67394;52.522;13.622;2023-07-31T01:04:58;2.35;;;1.60;;
78143;SDS011;67394;52.522;13.622;2023-07-31T01:07:41;2.78;;;1.70;;
78143;SDS011;67394;52.522;13.622;2023-07-31T01:10:22;2.30;;;1.73;;
78143;SDS011;67394;52.522;13.622;2023-07-31T01:12:51;3.75;;;1.65;;
78143;SDS011;67394;52.522;13.622;2023-07-31T01:15:20;2.70;;;1.50;;
78143;SDS011;67394;52.522;13.622;2023-07-31T01:17:47;3.05;;;1.52;;
78143;SDS011;67394;52.522;13.622;2023-07-31T01:20:15;2.65;;;1.85;;
78143;SDS011;67394;52.522;13.622;2023-07-31T01:31:02;3.95;;;1.85;;
78143;SDS011;67394;52.522;13.622;2023-07-31T01:33:32;2.50;;;1.80;;
78143;SDS011;67394;52.522;13.622;2023-07-31T01:35:58;3.05;;;1.67;;
78143;SDS011;67394;52.522;13.622;2023-07-31T01:38:25;4.45;;;2.25;;
78143;SDS011;67394;52.522;13.622;2023-07-31T01:43:19;5.05;;;2.00;;
78143;SDS011;67394;52.522;13.622;2023-07-31T01:48:13;2.75;;;1.90;;
78143;SDS011;67394;52.522;13.622;2023-07-31T01:50:39;5.65;;;1.83;;
78143;SDS011;67394;52.522;13.622;2023-07-31T01:53:06;3.33;;;2.10;;
78143;SDS011;67394;52.522;13.622;2023-07-31T01:55:32;2.63;;;1.92;;
78143;SDS011;67394;52.522;13.622;2023-07-31T02:00:26;3.50;;;1.70;;
78143;SDS011;67394;52.522;13.622;2023-07-31T02:02:52;2.20;;;1.70;;
78143;SDS011;67394;52.522;13.622;2023-07-31T02:07:45;5.32;;;2.35;;
78143;SDS011;67394;52.522;13.622;2023-07-31T02:10:12;4.30;;;2.28;;
78143;SDS011;67394;52.522;13.622;2023-07-31T02:12:39;3.10;;;2.47;;
78143;SDS011;67394;52.522;13.622;2023-07-31T02:15:05;2.55;;;2.05;;
78143;SDS011;67394;52.522;13.622;2023-07-31T02:17:33;3.72;;;2.10;;
78143;SDS011;67394;52.522;13.622;2023-07-31T02:20:00;3.88;;;2.10;;
78143;SDS011;67394;52.522;13.622;2023-07-31T02:22:26;3.78;;;2.10;;
78143;SDS011;67394;52.522;13.622;2023-07-31T02:24:53;2.85;;;2.05;;
78143;SDS011;67394;52.522;13.622;2023-07-31T02:27:20;6.72;;;3.47;;
78143;SDS011;67394;52.522;13.622;2023-07-31T02:29:47;3.03;;;2.20;;
78143;SDS011;67394;52.522;13.622;2023-07-31T02:32:13;3.42;;;1.77;;
78143;SDS011;67394;52.522;13.622;2023-07-31T02:34:40;4.03;;;2.40;;
78143;SDS011;67394;52.522;13.622;2023-07-31T02:39:33;5.65;;;2.25;;
78143;SDS011;67394;52.522;13.622;2023-07-31T02:42:00;4.05;;;2.40;;
78143;SDS011;67394;52.522;13.622;2023-07-31T02:44:27;3.88;;;2.92;;
78143;SDS011;67394;52.522;13.622;2023-07-31T02:46:54;4.28;;;2.22;;
78143;SDS011;67394;52.522;13.622;2023-07-31T02:49:20;2.58;;;2.10;;
78143;SDS011;67394;52.522;13.622;2023-07-31T02:51:47;4.68;;;2.45;;
78143;SDS011;67394;52.522;13.622;2023-07-31T02:54:13;3.90;;;2.30;;
78143;SDS011;67394;52.522;13.622;2023-07-31T02:56:40;3.95;;;2.13;;
78143;SDS011;67394;52.522;13.622;2023-07-31T02:59:07;4.25;;;2.38;;
78143;SDS011;67394;52.522;13.622;2023-07-31T03:01:33;3.95;;;2.45;;
78143;SDS011;67394;52.522;13.622;2023-07-31T03:03:59;3.22;;;2.20;;
78143;SDS011;67394;52.522;13.622;2023-07-31T03:06:26;4.53;;;2.70;;
78143;SDS011;67394;52.522;13.622;2023-07-31T03:08:52;3.70;;;2.13;;
78143;SDS011;67394;52.522;13.622;2023-07-31T03:11:19;3.38;;;2.80;;
78143;SDS011;67394;52.522;13.622;2023-07-31T03:13:45;3.40;;;2.50;;
78143;SDS011;67394;52.522;13.622;2023-07-31T03:16:12;3.63;;;2.33;;
78143;SDS011;67394;52.522;13.622;2023-07-31T03:21:05;6.55;;;2.78;;
78143;SDS011;67394;52.522;13.622;2023-07-31T03:23:31;6.20;;;2.90;;
78143;SDS011;67394;52.522;13.622;2023-07-31T03:25:58;4.47;;;2.83;;
78143;SDS011;67394;52.522;13.622;2023-07-31T03:28:29;4.97;;;2.53;;
78143;SDS011;67394;52.522;13.622;2023-07-31T03:30:56;3.85;;;2.72;;
78143;SDS011;67394;52.522;13.622;2023-07-31T03:33:23;4.53;;;3.15;;
78143;SDS011;67394;52.522;13.622;2023-07-31T03:35:49;3.90;;;2.85;;
78143;SDS011;67394;52.522;13.622;2023-07-31T03:38:16;3.75;;;2.65;;
78143;SDS011;67394;52.522;13.622;2023-07-31T03:40:42;6.40;;;2.63;;
78143;SDS011;67394;52.522;13.622;2023-07-31T03:43:09;9.25;;;4.65;;
78143;SDS011;67394;52.522;13.622;2023-07-31T03:45:36;10.25;;;4.53;;
78143;SDS011;67394;52.522;13.622;2023-07-31T03:48:03;6.35;;;3.38;;
78143;SDS011;67394;52.522;13.622;2023-07-31T03:50:30;5.18;;;3.17;;
78143;SDS011;67394;52.522;13.622;2023-07-31T03:52:57;4.20;;;2.90;;
78143;SDS011;67394;52.522;13.622;2023-07-31T03:55:23;4.03;;;3.10;;
78143;SDS011;67394;52.522;13.622;2023-07-31T03:57:50;3.45;;;2.85;;
78143;SDS011;67394;52.522;13.622;2023-07-31T04:00:17;3.78;;;3.20;;
78143;SDS011;67394;52.522;13.622;2023-07-31T04:02:43;5.22;;;3.30;;
78143;SDS011;67394;52.522;13.622;2023-07-31T04:05:10;5.85;;;3.38;;
78143;SDS011;67394;52.522;13.622;2023-07-31T04:10:03;5.50;;;2.88;;
78143;SDS011;67394;52.522;13.622;2023-07-31T04:14:57;5.70;;;3.58;;
78143;SDS011;67394;52.522;13.622;2023-07-31T04:17:23;4.38;;;2.83;;
78143;SDS011;67394;52.522;13.622;2023-07-31T04:19:50;5.70;;;3.15;;
78143;SDS011;67394;52.522;13.622;2023-07-31T04:22:17;4.53;;;3.42;;
78143;SDS011;67394;52.522;13.622;2023-07-31T04:24:43;4.75;;;3.47;;
78143;SDS011;67394;52.522;13.622;2023-07-31T04:27:10;4.28;;;3.05;;
78143;SDS011;67394;52.522;13.622;2023-07-31T04:29:36;4.93;;;3.00;;
78143;SDS011;67394;52.522;13.622;2023-07-31T04:32:03;5.03;;;3.15;;
78143;SDS011;67394;52.522;13.622;2023-07-31T04:34:31;5.63;;;3.47;;
78143;SDS011;67394;52.522;13.622;2023-07-31T04:36:58;4.95;;;3.13;;
78143;SDS011;67394;52.522;13.622;2023-07-31T04:39:24;4.10;;;3.20;;
78143;SDS011;67394;52.522;13.622;2023-07-31T04:41:50;5.80;;;3.28;;
78143;SDS011;67394;52.522;13.622;2023-07-31T04:44:17;5.25;;;3.05;;
78143;SDS011;67394;52.522;13.622;2023-07-31T04:46:44;3.83;;;2.72;;
78143;SDS011;67394;52.522;13.622;2023-07-31T04:49:11;5.47;;;3.28;;
78143;SDS011;67394;52.522;13.622;2023-07-31T04:51:37;7.40;;;3.10;;
78143;SDS011;67394;52.522;13.622;2023-07-31T04:54:04;5.05;;;2.97;;
78143;SDS011;67394;52.522;13.622;2023-07-31T04:56:31;5.43;;;3.28;;
78143;SDS011;67394;52.522;13.622;2023-07-31T04:58:57;4.22;;;2.90;;
78143;SDS011;67394;52.522;13.622;2023-07-31T05:01:24;5.95;;;2.95;;
78143;SDS011;67394;52.522;13.622;2023-07-31T05:03:51;5.57;;;2.58;;
78143;SDS011;67394;52.522;13.622;2023-07-31T05:06:18;6.22;;;2.60;;
78143;SDS011;67394;52.522;13.622;2023-07-31T05:08:45;5.07;;;3.28;;
78143;SDS011;67394;52.522;13.622;2023-07-31T05:11:11;6.68;;;3.42;;
78143;SDS011;67394;52.522;13.622;2023-07-31T05:13:38;5.18;;;3.13;;
78143;SDS011;67394;52.522;13.622;2023-07-31T05:16:04;3.53;;;2.47;;
78143;SDS011;67394;52.522;13.622;2023-07-31T05:18:31;4.45;;;2.50;;
78143;SDS011;67394;52.522;13.622;2023-07-31T05:20:57;4.35;;;2.55;;
78143;SDS011;67394;52.522;13.622;2023-07-31T05:23:24;3.50;;;2.53;;
78143;SDS011;67394;52.522;13.622;2023-07-31T05:25:50;5.10;;;3.08;;
78143;SDS011;67394;52.522;13.622;2023-07-31T05:28:17;6.78;;;2.83;;
78143;SDS011;67394;52.522;13.622;2023-07-31T05:30:43;6.13;;;2.80;;
78143;SDS011;67394;52.522;13.622;2023-07-31T05:33:10;4.32;;;2.58;;
78143;SDS011;67394;52.522;13.622;2023-07-31T05:35:40;4.72;;;2.72;;
78143;SDS011;67394;52.522;13.622;2023-07-31T05:40:33;3.70;;;2.83;;
78143;SDS011;67394;52.522;13.622;2023-07-31T05:42:59;4.18;;;2.80;;
78143;SDS011;67394;52.522;13.622;2023-07-31T05:45:26;3.75;;;2.28;;
78143;SDS011;67394;52.522;13.622;2023-07-31T05:47:52;4.55;;;2.80;;
78143;SDS011;67394;52.522;13.622;2023-07-31T05:50:19;7.18;;;3.03;;
78143;SDS011;67394;52.522;13.622;2023-07-31T05:52:45;5.65;;;2.90;;
78143;SDS011;67394;52.522;13.622;2023-07-31T05:55:12;4.45;;;3.08;;
78143;SDS011;67394;52.522;13.622;2023-07-31T05:57:38;3.83;;;2.92;;
78143;SDS011;67394;52.522;13.622;2023-07-31T06:00:05;4.47;;;2.53;;
78143;SDS011;67394;52.522;13.622;2023-07-31T06:02:33;5.60;;;2.83;;
78143;SDS011;67394;52.522;13.622;2023-07-31T06:04:59;8.73;;;4.20;;
78143;SDS011;67394;52.522;13.622;2023-07-31T06:07:26;5.00;;;2.63;;
78143;SDS011;67394;52.522;13.622;2023-07-31T06:09:52;3.97;;;2.60;;
78143;SDS011;67394;52.522;13.622;2023-07-31T06:12:19;4.65;;;2.50;;
78143;SDS011;67394;52.522;13.622;2023-07-31T06:14:45;3.30;;;2.22;;
78143;SDS011;67394;52.522;13.622;2023-07-31T06:17:12;4.93;;;2.55;;
78143;SDS011;67394;52.522;13.622;2023-07-31T06:19:38;4.85;;;2.28;;
78143;SDS011;67394;52.522;13.622;2023-07-31T06:22:05;4.05;;;2.70;;
78143;SDS011;67394;52.522;13.622;2023-07-31T06:24:32;6.90;;;2.80;;
78143;SDS011;67394;52.522;13.622;2023-07-31T06:26:58;5.20;;;2.30;;
78143;SDS011;67394;52.522;13.622;2023-07-31T06:29:25;8.18;;;2.88;;
78143;SDS011;67394;52.522;13.622;2023-07-31T06:31:51;4.45;;;2.58;;
78143;SDS011;67394;52.522;13.622;2023-07-31T06:34:18;5.53;;;2.97;;
78143;SDS011;67394;52.522;13.622;2023-07-31T06:36:44;4.80;;;2.50;;
78143;SDS011;67394;52.522;13.622;2023-07-31T06:39:11;4.63;;;2.67;;
78143;SDS011;67394;52.522;13.622;2023-07-31T06:41:38;3.30;;;2.42;;
78143;SDS011;67394;52.522;13.622;2023-07-31T06:44:04;5.85;;;2.65;;
78143;SDS011;67394;52.522;13.622;2023-07-31T06:46:31;5.50;;;2.72;;
78143;SDS011;67394;52.522;13.622;2023-07-31T06:48:57;5.43;;;2.53;;
78143;SDS011;67394;52.522;13.622;2023-07-31T06:51:24;3.33;;;2.20;;
78143;SDS011;67394;52.522;13.622;2023-07-31T06:53:50;6.18;;;2.10;;
78143;SDS011;67394;52.522;13.622;2023-07-31T06:56:17;5.95;;;2.50;;
78143;SDS011;67394;52.522;13.622;2023-07-31T06:58:43;4.55;;;2.78;;
78143;SDS011;67394;52.522;13.622;2023-07-31T07:01:10;7.05;;;2.75;;
78143;SDS011;67394;52.522;13.622;2023-07-31T07:03:36;4.88;;;2.25;;
78143;SDS011;67394;52.522;13.622;2023-07-31T07:06:03;4.50;;;2.55;;
78143;SDS011;67394;52.522;13.622;2023-07-31T07:08:29;4.90;;;2.38;;
78143;SDS011;67394;52.522;13.622;2023-07-31T07:10:56;3.38;;;2.70;;
78143;SDS011;67394;52.522;13.622;2023-07-31T07:13:22;6.63;;;2.53;;
78143;SDS011;67394;52.522;13.622;2023-07-31T07:15:49;7.85;;;2.53;;
78143;SDS011;67394;52.522;13.622;2023-07-31T07:18:16;5.20;;;2.75;;
78143;SDS011;67394;52.522;13.622;2023-07-31T07:20:52;2.85;;;1.90;;
78143;SDS011;67394;52.522;13.622;2023-07-31T07:23:20;2.10;;;1.63;;
78143;SDS011;67394;52.522;13.622;2023-07-31T07:25:47;4.43;;;2.40;;
78143;SDS011;67394;52.522;13.622;2023-07-31T07:28:14;4.72;;;2.22;;
78143;SDS011;67394;52.522;13.622;2023-07-31T07:30:41;4.80;;;2.42;;
78143;SDS011;67394;52.522;13.622;2023-07-31T07:33:07;4.57;;;2.83;;
78143;SDS011;67394;52.522;13.622;2023-07-31T07:35:34;4.75;;;2.50;;
78143;SDS011;67394;52.522;13.622;2023-07-31T07:38:02;5.95;;;2.50;;
78143;SDS011;67394;52.522;13.622;2023-07-31T07:40:29;4.63;;;2.38;;
78143;SDS011;67394;52.522;13.622;2023-07-31T07:42:55;3.63;;;2.53;;
78143;SDS011;67394;52.522;13.622;2023-07-31T07:45:22;4.45;;;2.35;;
78143;SDS011;67394;52.522;13.622;2023-07-31T07:47:48;3.03;;;2.28;;
78143;SDS011;67394;52.522;13.622;2023-07-31T07:50:15;4.90;;;2.30;;
78143;SDS011;67394;52.522;13.622;2023-07-31T07:52:41;7.38;;;3.08;;
78143;SDS011;67394;52.522;13.622;2023-07-31T07:55:08;3.55;;;2.05;;
78143;SDS011;67394;52.522;13.622;2023-07-31T07:57:34;3.38;;;2.55;;
78143;SDS011;67394;52.522;13.622;2023-07-31T08:00:01;4.75;;;2.60;;
78143;SDS011;67394;52.522;13.622;2023-07-31T08:02:28;6.30;;;2.55;;
78143;SDS011;67394;52.522;13.622;2023-07-31T08:04:55;3.40;;;2.10;;
78143;SDS011;67394;52.522;13.622;2023-07-31T08:07:21;4.30;;;2.40;;
78143;SDS011;67394;52.522;13.622;2023-07-31T08:09:48;4.13;;;2.60;;
78143;SDS011;67394;52.522;13.622;2023-07-31T08:12:15;2.72;;;2.10;;
78143;SDS011;67394;52.522;13.622;2023-07-31T08:14:41;5.05;;;2.80;;
78143;SDS011;67394;52.522;13.622;2023-07-31T08:17:08;4.18;;;2.60;;
78143;SDS011;67394;52.522;13.622;2023-07-31T08:19:34;3.55;;;3.05;;
78143;SDS011;67394;52.522;13.622;2023-07-31T08:24:28;5.35;;;2.60;;
78143;SDS011;67394;52.522;13.622;2023-07-31T08:26:54;3.30;;;2.25;;
78143;SDS011;67394;52.522;13.622;2023-07-31T08:29:21;4.55;;;2.80;;
78143;SDS011;67394;52.522;13.622;2023-07-31T08:31:47;2.38;;;2.00;;
78143;SDS011;67394;52.522;13.622;2023-07-31T08:34:15;4.10;;;2.30;;
78143;SDS011;67394;52.522;13.622;2023-07-31T08:36:42;3.30;;;2.17;;
78143;SDS011;67394;52.522;13.622;2023-07-31T08:39:08;3.58;;;2.25;;
78143;SDS011;67394;52.522;13.622;2023-07-31T08:41:38;4.80;;;2.30;;
78143;SDS011;67394;52.522;13.622;2023-07-31T08:44:05;3.15;;;2.22;;
78143;SDS011;67394;52.522;13.622;2023-07-31T08:46:33;3.25;;;2.72;;
78143;SDS011;67394;52.522;13.622;2023-07-31T08:49:02;5.03;;;2.38;;
78143;SDS011;67394;52.522;13.622;2023-07-31T08:51:30;3.05;;;2.10;;
78143;SDS011;67394;52.522;13.622;2023-07-31T08:53:58;4.35;;;1.98;;
78143;SDS011;67394;52.522;13.622;2023-07-31T08:58:51;4.72;;;2.10;;
78143;SDS011;67394;52.522;13.622;2023-07-31T09:01:20;2.78;;;1.88;;
78143;SDS011;67394;52.522;13.622;2023-07-31T09:03:48;3.28;;;2.00;;
78143;SDS011;67394;52.522;13.622;2023-07-31T09:06:17;5.82;;;2.40;;
78143;SDS011;67394;52.522;13.622;2023-07-31T09:08:46;4.20;;;2.22;;
78143;SDS011;67394;52.522;13.622;2023-07-31T09:13:40;4.38;;;2.20;;
78143;SDS011;67394;52.522;13.622;2023-07-31T09:16:08;3.53;;;2.10;;
78143;SDS011;67394;52.522;13.622;2023-07-31T09:18:57;2.85;;;1.85;;
78143;SDS011;67394;52.522;13.622;2023-07-31T09:21:23;3.28;;;2.17;;
78143;SDS011;67394;52.522;13.622;2023-07-31T09:23:50;3.88;;;2.08;;
78143;SDS011;67394;52.522;13.622;2023-07-31T09:26:32;3.75;;;2.22;;
78143;SDS011;67394;52.522;13.622;2023-07-31T09:29:00;4.20;;;1.90;;
78143;SDS011;67394;52.522;13.622;2023-07-31T09:31:40;3.85;;;2.13;;
78143;SDS011;67394;52.522;13.622;2023-07-31T09:34:08;3.25;;;2.20;;
78143;SDS011;67394;52.522;13.622;2023-07-31T09:36:45;3.85;;;1.77;;
78143;SDS011;67394;52.522;13.622;2023-07-31T09:39:12;3.17;;;1.90;;
78143;SDS011;67394;52.522;13.622;2023-07-31T09:41:40;2.95;;;2.00;;
78143;SDS011;67394;52.522;13.622;2023-07-31T09:44:11;2.38;;;1.83;;
78143;SDS011;67394;52.522;13.622;2023-07-31T09:49:07;2.17;;;1.75;;
78143;SDS011;67394;52.522;13.622;2023-07-31T09:51:36;1.83;;;1.50;;
78143;SDS011;67394;52.522;13.622;2023-07-31T09:54:08;2.20;;;1.50;;
78143;SDS011;67394;52.522;13.622;2023-07-31T09:56:36;4.93;;;2.47;;
78143;SDS011;67394;52.522;13.622;2023-07-31T09:59:05;3.88;;;2.10;;
78143;SDS011;67394;52.522;13.622;2023-07-31T10:01:32;2.08;;;1.40;;
78143;SDS011;67394;52.522;13.622;2023-07-31T10:06:26;1.55;;;1.13;;
78143;SDS011;67394;52.522;13.622;2023-07-31T10:08:53;2.08;;;1.35;;
78143;SDS011;67394;52.522;13.622;2023-07-31T10:11:21;1.45;;;1.10;;
78143;SDS011;67394;52.522;13.622;2023-07-31T10:13:50;1.60;;;1.10;;
78143;SDS011;67394;52.522;13.622;2023-07-31T10:16:18;2.53;;;1.48;;
78143;SDS011;67394;52.522;13.622;2023-07-31T10:18:45;1.40;;;1.27;;
78143;SDS011;67394;52.522;13.622;2023-07-31T10:21:12;2.08;;;1.58;;
78143;SDS011;67394;52.522;13.622;2023-07-31T10:23:40;2.60;;;1.85;;
78143;SDS011;67394;52.522;13.622;2023-07-31T10:26:09;2.63;;;1.90;;
78143;SDS011;67394;52.522;13.622;2023-07-31T10:28:37;3.08;;;1.65;;
78143;SDS011;67394;52.522;13.622;2023-07-31T10:31:06;2.85;;;1.85;;
78143;SDS011;67394;52.522;13.622;2023-07-31T10:36:12;3.70;;;2.00;;
78143;SDS011;67394;52.522;13.622;2023-07-31T10:38:39;4.97;;;2.30;;
78143;SDS011;67394;52.522;13.622;2023-07-31T10:41:24;3.50;;;2.13;;
78143;SDS011;67394;52.522;13.622;2023-07-31T10:43:56;3.63;;;2.33;;
78143;SDS011;67394;52.522;13.622;2023-07-31T10:46:30;4.30;;;2.58;;
78143;SDS011;67394;52.522;13.622;2023-07-31T10:49:00;4.30;;;2.42;;
78143;SDS011;67394;52.522;13.622;2023-07-31T10:51:34;4.25;;;2.85;;
78143;SDS011;67394;52.522;13.622;2023-07-31T10:54:14;3.70;;;2.85;;
78143;SDS011;67394;52.522;13.622;2023-07-31T10:56:45;4.38;;;2.58;;
78143;SDS011;67394;52.522;13.622;2023-07-31T10:59:12;4.18;;;2.38;;
78143;SDS011;67394;52.522;13.622;2023-07-31T11:01:52;4.70;;;2.67;;
78143;SDS011;67394;52.522;13.622;2023-07-31T11:04:26;6.30;;;3.00;;
78143;SDS011;67394;52.522;13.622;2023-07-31T11:07:00;5.10;;;2.80;;
78143;SDS011;67394;52.522;13.622;2023-07-31T11:09:31;5.10;;;2.50;;
78143;SDS011;67394;52.522;13.622;2023-07-31T11:11:59;3.67;;;2.60;;
78143;SDS011;67394;52.522;13.622;2023-07-31T11:14:26;3.60;;;2.30;;
78143;SDS011;67394;52.522;13.622;2023-07-31T11:16:53;4.60;;;2.40;;
78143;SDS011;67394;52.522;13.622;2023-07-31T11:19:23;4.63;;;2.75;;
78143;SDS011;67394;52.522;13.622;2023-07-31T11:21:54;5.93;;;2.63;;
78143;SDS011;67394;52.522;13.622;2023-07-31T11:24:22;3.47;;;2.33;;
78143;SDS011;67394;52.522;13.622;2023-07-31T11:26:49;4.25;;;2.40;;
78143;SDS011;67394;52.522;13.622;2023-07-31T11:29:17;7.28;;;2.75;;
78143;SDS011;67394;52.522;13.622;2023-07-31T11:31:44;5.63;;;2.80;;
78143;SDS011;67394;52.522;13.622;2023-07-31T11:34:11;5.22;;;2.72;;
78143;SDS011;67394;52.522;13.622;2023-07-31T11:36:37;4.97;;;2.75;;
78143;SDS011;67394;52.522;13.622;2023-07-31T11:39:07;5.05;;;2.50;;
78143;SDS011;67394;52.522;13.622;2023-07-31T11:41:36;4.65;;;2.28;;
78143;SDS011;67394;52.522;13.622;2023-07-31T11:44:06;5.50;;;2.40;;
78143;SDS011;67394;52.522;13.622;2023-07-31T11:46:52;6.00;;;2.80;;
78143;SDS011;67394;52.522;13.622;2023-07-31T11:49:19;4.65;;;2.30;;
78143;SDS011;67394;52.522;13.622;2023-07-31T11:51:47;2.78;;;1.90;;
78143;SDS011;67394;52.522;13.622;2023-07-31T11:54:13;4.32;;;2.65;;
78143;SDS011;67394;52.522;13.622;2023-07-31T11:56:40;4.00;;;2.40;;
78143;SDS011;67394;52.522;13.622;2023-07-31T11:59:07;6.68;;;2.85;;
78143;SDS011;67394;52.522;13.622;2023-07-31T12:04:01;3.75;;;2.10;;
78143;SDS011;67394;52.522;13.622;2023-07-31T12:06:35;3.85;;;2.25;;
78143;SDS011;67394;52.522;13.622;2023-07-31T12:09:05;4.07;;;2.47;;
78143;SDS011;67394;52.522;13.622;2023-07-31T12:11:45;5.25;;;2.25;;
78143;SDS011;67394;52.522;13.622;2023-07-31T12:14:26;3.85;;;2.15;;
78143;SDS011;67394;52.522;13.622;2023-07-31T12:16:59;3.42;;;2.30;;
78143;SDS011;67394;52.522;13.622;2023-07-31T12:19:29;4.32;;;2.30;;
78143;SDS011;67394;52.522;13.622;2023-07-31T12:21:58;3.15;;;2.47;;
78143;SDS011;67394;52.522;13.622;2023-07-31T12:24:26;2.72;;;2.20;;
78143;SDS011;67394;52.522;13.622;2023-07-31T12:26:52;3.13;;;1.98;;
78143;SDS011;67394;52.522;13.622;2023-07-31T12:29:19;4.30;;;2.38;;
78143;SDS011;67394;52.522;13.622;2023-07-31T12:34:16;3.47;;;2.15;;
78143;SDS011;67394;52.522;13.622;2023-07-31T12:36:44;3.97;;;2.42;;
78143;SDS011;67394;52.522;13.622;2023-07-31T12:39:12;3.30;;;2.40;;
78143;SDS011;67394;52.522;13.622;2023-07-31T12:41:39;4.72;;;2.10;;
78143;SDS011;67394;52.522;13.622;2023-07-31T12:44:06;3.67;;;2.13;;
78143;SDS011;67394;52.522;13.622;2023-07-31T12:46:32;2.58;;;1.95;;
78143;SDS011;67394;52.522;13.622;2023-07-31T12:48:59;3.22;;;1.88;;
78143;SDS011;67394;52.522;13.622;2023-07-31T12:51:26;2.70;;;1.90;;
78143;SDS011;67394;52.522;13.622;2023-07-31T12:53:52;2.70;;;1.90;;
78143;SDS011;67394;52.522;13.622;2023-07-31T12:56:19;3.22;;;2.05;;
78143;SDS011;67394;52.522;13.622;2023-07-31T13:01:12;3.70;;;2.30;;
78143;SDS011;67394;52.522;13.622;2023-07-31T13:03:39;4.05;;;2.10;;
78143;SDS011;67394;52.522;13.622;2023-07-31T13:08:35;3.90;;;1.98;;
78143;SDS011;67394;52.522;13.622;2023-07-31T13:11:01;2.55;;;2.00;;
78143;SDS011;67394;52.522;13.622;2023-07-31T13:13:28;3.30;;;1.85;;
78143;SDS011;67394;52.522;13.622;2023-07-31T13:15:55;3.42;;;1.65;;
78143;SDS011;67394;52.522;13.622;2023-07-31T13:18:22;2.92;;;1.83;;
78143;SDS011;67394;52.522;13.622;2023-07-31T13:20:49;3.53;;;1.50;;
78143;SDS011;67394;52.522;13.622;2023-07-31T13:23:15;4.28;;;1.80;;
78143;SDS011;67394;52.522;13.622;2023-07-31T13:28:08;4.60;;;1.75;;
78143;SDS011;67394;52.522;13.622;2023-07-31T13:30:35;4.65;;;2.10;;
78143;SDS011;67394;52.522;13.622;2023-07-31T13:33:02;3.50;;;2.00;;
78143;SDS011;67394;52.522;13.622;2023-07-31T13:35:28;2.33;;;1.52;;
78143;SDS011;67394;52.522;13.622;2023-07-31T13:37:55;3.17;;;2.00;;
78143;SDS011;67394;52.522;13.622;2023-07-31T13:42:49;3.92;;;1.98;;
78143;SDS011;67394;52.522;13.622;2023-07-31T13:45:15;4.03;;;1.95;;
78143;SDS011;67394;52.522;13.622;2023-07-31T13:47:42;3.17;;;1.95;;
78143;SDS011;67394;52.522;13.622;2023-07-31T13:50:08;3.58;;;1.90;;
78143;SDS011;67394;52.522;13.622;2023-07-31T13:52:35;3.38;;;2.05;;
78143;SDS011;67394;52.522;13.622;2023-07-31T13:55:02;4.22;;;2.50;;
78143;SDS011;67394;52.522;13.622;2023-07-31T13:57:29;5.05;;;2.10;;
78143;SDS011;67394;52.522;13.622;2023-07-31T13:59:55;5.60;;;2.30;;
78143;SDS011;67394;52.522;13.622;2023-07-31T14:02:21;4.95;;;2.33;;
78143;SDS011;67394;52.522;13.622;2023-07-31T14:04:48;3.53;;;2.28;;
78143;SDS011;67394;52.522;13.622;2023-07-31T14:07:15;3.25;;;2.00;;
78143;SDS011;67394;52.522;13.622;2023-07-31T14:09:41;5.00;;;2.53;;
78143;SDS011;67394;52.522;13.622;2023-07-31T14:12:08;3.67;;;2.45;;
78143;SDS011;67394;52.522;13.622;2023-07-31T14:14:34;3.95;;;2.38;;
78143;SDS011;67394;52.522;13.622;2023-07-31T14:17:01;3.30;;;2.03;;
78143;SDS011;67394;52.522;13.622;2023-07-31T14:19:28;3.25;;;1.85;;
78143;SDS011;67394;52.522;13.622;2023-07-31T14:21:55;5.15;;;2.60;;
78143;SDS011;67394;52.522;13.622;2023-07-31T14:24:36;3.90;;;2.30;;
78143;SDS011;67394;52.522;13.622;2023-07-31T14:27:03;7.97;;;2.47;;
78143;SDS011;67394;52.522;13.622;2023-07-31T14:29:30;3.95;;;1.95;;
78143;SDS011;67394;52.522;13.622;2023-07-31T14:31:57;2.47;;;1.67;;
78143;SDS011;67394;52.522;13.622;2023-07-31T14:34:23;3.20;;;2.30;;
78143;SDS011;67394;52.522;13.622;2023-07-31T14:36:50;5.57;;;2.20;;
78143;SDS011;67394;52.522;13.622;2023-07-31T14:39:16;4.60;;;2.40;;
78143;SDS011;67394;52.522;13.622;2023-07-31T14:41:43;3.65;;;2.25;;
78143;SDS011;67394;52.522;13.622;2023-07-31T14:44:09;5.40;;;2.60;;
78143;SDS011;67394;52.522;13.622;2023-07-31T14:46:36;2.97;;;2.00;;
78143;SDS011;67394;52.522;13.622;2023-07-31T14:49:03;4.70;;;2.13;;
78143;SDS011;67394;52.522;13.622;2023-07-31T14:51:30;4.25;;;2.50;;
78143;SDS011;67394;52.522;13.622;2023-07-31T14:53:56;4.07;;;2.35;;
78143;SDS011;67394;52.522;13.622;2023-07-31T14:58:50;4.93;;;2.28;;
78143;SDS011;67394;52.522;13.622;2023-07-31T15:01:16;3.67;;;2.28;;
78143;SDS011;67394;52.522;13.622;2023-07-31T15:03:43;2.70;;;1.85;;
78143;SDS011;67394;52.522;13.622;2023-07-31T15:06:10;3.25;;;2.17;;
78143;SDS011;67394;52.522;13.622;2023-07-31T15:11:03;3.65;;;2.15;;
78143;SDS011;67394;52.522;13.622;2023-07-31T15:15:56;4.78;;;2.10;;
78143;SDS011;67394;52.522;13.622;2023-07-31T15:18:23;4.85;;;2.17;;
78143;SDS011;67394;52.522;13.622;2023-07-31T15:20:50;2.67;;;1.92;;
78143;SDS011;67394;52.522;13.622;2023-07-31T15:23:16;5.60;;;2.67;;
78143;SDS011;67394;52.522;13.622;2023-07-31T15:28:09;3.67;;;2.25;;
78143;SDS011;67394;52.522;13.622;2023-07-31T15:30:36;2.80;;;2.15;;
78143;SDS011;67394;52.522;13.622;2023-07-31T15:33:03;4.35;;;2.78;;
78143;SDS011;67394;52.522;13.622;2023-07-31T15:35:30;5.28;;;2.38;;
78143;SDS011;67394;52.522;13.622;2023-07-31T15:40:23;2.83;;;2.00;;
78143;SDS011;67394;52.522;13.622;2023-07-31T15:42:49;4.68;;;2.83;;
78143;SDS011;67394;52.522;13.622;2023-07-31T15:45:20;3.47;;;2.15;;
78143;SDS011;67394;52.522;13.622;2023-07-31T15:47:47;4.35;;;2.35;;
78143;SDS011;67394;52.522;13.622;2023-07-31T15:50:14;4.88;;;2.35;;
78143;SDS011;67394;52.522;13.622;2023-07-31T15:52:42;4.38;;;2.70;;
78143;SDS011;67394;52.522;13.622;2023-07-31T15:55:09;3.33;;;2.10;;
78143;SDS011;67394;52.522;13.622;2023-07-31T15:57:36;3.60;;;2.20;;